sensor_id;sensor_type;location;lat;lon;timestamp;P1;durP1;ratioP1;P2;durP2;ratioP2
69937;SDS011;57248;47.320;15.998;2023-04-19T00:00:59;6.88;;;3.08;;
69937;SDS011;57248;47.320;15.998;2023-04-19T00:03:34;7.43;;;3.10;;
69937;SDS011;57248;47.320;15.998;2023-04-19T00:06:00;7.70;;;3.35;;
69937;SDS011;57248;47.320;15.998;2023-04-19T00:08:33;8.93;;;3.50;;
69937;SDS011;57248;47.320;15.998;2023-04-19T00:11:04;8.93;;;3.60;;
69937;SDS011;57248;47.320;15.998;2023-04-19T00:13:36;8.13;;;3.33;;
69937;SDS011;57248;47.320;15.998;2023-04-19T00:16:08;7.22;;;3.30;;
69937;SDS011;57248;47.320;15.998;2023-04-19T00:18:40;8.57;;;3.65;;
69937;SDS011;57248;47.320;15.998;2023-04-19T00:21:13;11.10;;;3.90;;
69937;SDS011;57248;47.320;15.998;2023-04-19T00:23:45;7.03;;;3.30;;
69937;SDS011;57248;47.320;15.998;2023-04-19T00:26:17;7.95;;;3.22;;
69937;SDS011;57248;47.320;15.998;2023-04-19T00:28:50;10.00;;;3.45;;
69937;SDS011;57248;47.320;15.998;2023-04-19T00:31:16;7.37;;;3.47;;
69937;SDS011;57248;47.320;15.998;2023-04-19T00:33:47;6.60;;;3.10;;
69937;SDS011;57248;47.320;15.998;2023-04-19T00:36:19;6.75;;;3.08;;
69937;SDS011;57248;47.320;15.998;2023-04-19T00:38:46;8.07;;;3.50;;
69937;SDS011;57248;47.320;15.998;2023-04-19T00:41:17;7.77;;;3.13;;
69937;SDS011;57248;47.320;15.998;2023-04-19T00:43:51;7.22;;;2.80;;
69937;SDS011;57248;47.320;15.998;2023-04-19T00:46:22;6.63;;;3.10;;
69937;SDS011;57248;47.320;15.998;2023-04-19T00:48:58;7.40;;;3.47;;
69937;SDS011;57248;47.320;15.998;2023-04-19T00:51:31;6.95;;;3.13;;
69937;SDS011;57248;47.320;15.998;2023-04-19T00:53:57;6.17;;;2.83;;
69937;SDS011;57248;47.320;15.998;2023-04-19T00:56:28;7.15;;;3.25;;
69937;SDS011;57248;47.320;15.998;2023-04-19T00:59:08;6.82;;;2.88;;
69937;SDS011;57248;47.320;15.998;2023-04-19T01:01:40;7.80;;;2.85;;
69937;SDS011;57248;47.320;15.998;2023-04-19T01:04:14;7.30;;;3.03;;
69937;SDS011;57248;47.320;15.998;2023-04-19T01:06:46;8.07;;;3.00;;
69937;SDS011;57248;47.320;15.998;2023-04-19T01:09:18;6.82;;;3.00;;
69937;SDS011;57248;47.320;15.998;2023-04-19T01:11:50;7.75;;;2.67;;
69937;SDS011;57248;47.320;15.998;2023-04-19T01:14:22;5.50;;;2.50;;
69937;SDS011;57248;47.320;15.998;2023-04-19T01:16:55;9.27;;;3.17;;
69937;SDS011;57248;47.320;15.998;2023-04-19T01:19:27;7.25;;;2.65;;
69937;SDS011;57248;47.320;15.998;2023-04-19T01:22:00;7.10;;;2.83;;
69937;SDS011;57248;47.320;15.998;2023-04-19T01:24:35;7.95;;;3.17;;
69937;SDS011;57248;47.320;15.998;2023-04-19T01:27:07;6.80;;;2.75;;
69937;SDS011;57248;47.320;15.998;2023-04-19T01:29:39;7.47;;;3.13;;
69937;SDS011;57248;47.320;15.998;2023-04-19T01:32:11;7.45;;;3.00;;
69937;SDS011;57248;47.320;15.998;2023-04-19T01:34:43;8.88;;;3.15;;
69937;SDS011;57248;47.320;15.998;2023-04-19T01:37:15;7.43;;;3.33;;
69937;SDS011;57248;47.320;15.998;2023-04-19T01:39:47;7.72;;;3.05;;
69937;SDS011;57248;47.320;15.998;2023-04-19T01:42:19;7.53;;;2.97;;
69937;SDS011;57248;47.320;15.998;2023-04-19T01:44:51;8.75;;;3.38;;
69937;SDS011;57248;47.320;15.998;2023-04-19T01:47:25;7.65;;;3.17;;
69937;SDS011;57248;47.320;15.998;2023-04-19T01:49:58;8.82;;;3.20;;
69937;SDS011;57248;47.320;15.998;2023-04-19T01:52:23;8.73;;;3.30;;
69937;SDS011;57248;47.320;15.998;2023-04-19T01:54:55;7.27;;;3.30;;
69937;SDS011;57248;47.320;15.998;2023-04-19T01:57:28;8.18;;;3.17;;
69937;SDS011;57248;47.320;15.998;2023-04-19T02:00:08;7.93;;;3.53;;
69937;SDS011;57248;47.320;15.998;2023-04-19T02:02:40;8.18;;;3.22;;
69937;SDS011;57248;47.320;15.998;2023-04-19T02:05:14;8.10;;;3.58;;
69937;SDS011;57248;47.320;15.998;2023-04-19T02:07:49;6.53;;;3.03;;
69937;SDS011;57248;47.320;15.998;2023-04-19T02:10:15;6.93;;;3.17;;
69937;SDS011;57248;47.320;15.998;2023-04-19T02:12:47;8.18;;;3.33;;
69937;SDS011;57248;47.320;15.998;2023-04-19T02:15:18;7.40;;;3.13;;
69937;SDS011;57248;47.320;15.998;2023-04-19T02:17:50;8.20;;;3.47;;
69937;SDS011;57248;47.320;15.998;2023-04-19T02:20:22;5.93;;;2.83;;
69937;SDS011;57248;47.320;15.998;2023-04-19T02:22:54;7.95;;;3.40;;
69937;SDS011;57248;47.320;15.998;2023-04-19T02:25:26;7.03;;;3.00;;
69937;SDS011;57248;47.320;15.998;2023-04-19T02:27:58;7.80;;;3.60;;
69937;SDS011;57248;47.320;15.998;2023-04-19T02:30:30;7.93;;;3.33;;
69937;SDS011;57248;47.320;15.998;2023-04-19T02:33:02;8.35;;;3.47;;
69937;SDS011;57248;47.320;15.998;2023-04-19T02:35:34;8.60;;;3.53;;
69937;SDS011;57248;47.320;15.998;2023-04-19T02:38:06;7.47;;;3.22;;
69937;SDS011;57248;47.320;15.998;2023-04-19T02:40:32;9.07;;;3.70;;
69937;SDS011;57248;47.320;15.998;2023-04-19T02:43:03;7.43;;;3.35;;
69937;SDS011;57248;47.320;15.998;2023-04-19T02:45:35;7.80;;;3.10;;
69937;SDS011;57248;47.320;15.998;2023-04-19T02:48:07;7.43;;;3.38;;
69937;SDS011;57248;47.320;15.998;2023-04-19T02:50:40;9.95;;;4.13;;
69937;SDS011;57248;47.320;15.998;2023-04-19T02:53:12;8.98;;;3.83;;
69937;SDS011;57248;47.320;15.998;2023-04-19T02:55:45;9.30;;;3.75;;
69937;SDS011;57248;47.320;15.998;2023-04-19T02:58:25;8.97;;;3.37;;
69937;SDS011;57248;47.320;15.998;2023-04-19T03:01:02;8.35;;;3.55;;
69937;SDS011;57248;47.320;15.998;2023-04-19T03:03:34;8.50;;;3.72;;
69937;SDS011;57248;47.320;15.998;2023-04-19T03:06:06;9.13;;;3.95;;
69937;SDS011;57248;47.320;15.998;2023-04-19T03:08:39;7.63;;;3.38;;
69937;SDS011;57248;47.320;15.998;2023-04-19T03:11:13;7.90;;;3.17;;
69937;SDS011;57248;47.320;15.998;2023-04-19T03:13:40;8.68;;;3.72;;
69937;SDS011;57248;47.320;15.998;2023-04-19T03:16:12;8.63;;;3.33;;
69937;SDS011;57248;47.320;15.998;2023-04-19T03:18:45;7.43;;;3.40;;
69937;SDS011;57248;47.320;15.998;2023-04-19T03:21:11;8.60;;;3.13;;
69937;SDS011;57248;47.320;15.998;2023-04-19T03:23:48;7.60;;;3.30;;
69937;SDS011;57248;47.320;15.998;2023-04-19T03:26:21;7.43;;;3.33;;
69937;SDS011;57248;47.320;15.998;2023-04-19T03:28:55;7.38;;;3.28;;
69937;SDS011;57248;47.320;15.998;2023-04-19T03:31:50;8.60;;;3.30;;
69937;SDS011;57248;47.320;15.998;2023-04-19T03:34:23;9.20;;;3.97;;
69937;SDS011;57248;47.320;15.998;2023-04-19T03:36:48;9.30;;;3.95;;
69937;SDS011;57248;47.320;15.998;2023-04-19T03:39:20;8.80;;;3.83;;
69937;SDS011;57248;47.320;15.998;2023-04-19T03:41:58;9.15;;;3.75;;
69937;SDS011;57248;47.320;15.998;2023-04-19T03:44:53;8.77;;;3.85;;
69937;SDS011;57248;47.320;15.998;2023-04-19T03:47:27;7.63;;;3.63;;
69937;SDS011;57248;47.320;15.998;2023-04-19T03:49:59;8.88;;;3.72;;
69937;SDS011;57248;47.320;15.998;2023-04-19T03:52:33;9.02;;;3.97;;
69937;SDS011;57248;47.320;15.998;2023-04-19T03:55:05;9.60;;;4.00;;
69937;SDS011;57248;47.320;15.998;2023-04-19T03:57:38;9.00;;;3.60;;
69937;SDS011;57248;47.320;15.998;2023-04-19T04:00:34;8.57;;;3.27;;
69937;SDS011;57248;47.320;15.998;2023-04-19T04:03:08;8.70;;;3.75;;
69937;SDS011;57248;47.320;15.998;2023-04-19T04:05:40;8.52;;;3.80;;
69937;SDS011;57248;47.320;15.998;2023-04-19T04:08:12;8.77;;;4.05;;
69937;SDS011;57248;47.320;15.998;2023-04-19T04:10:46;10.25;;;4.45;;
69937;SDS011;57248;47.320;15.998;2023-04-19T04:13:20;9.60;;;4.00;;
69937;SDS011;57248;47.320;15.998;2023-04-19T04:16:03;10.52;;;4.47;;
69937;SDS011;57248;47.320;15.998;2023-04-19T04:18:36;9.40;;;4.30;;
69937;SDS011;57248;47.320;15.998;2023-04-19T04:21:12;22.85;;;9.85;;
69937;SDS011;57248;47.320;15.998;2023-04-19T04:23:45;15.80;;;6.55;;
69937;SDS011;57248;47.320;15.998;2023-04-19T04:26:27;13.13;;;5.97;;
69937;SDS011;57248;47.320;15.998;2023-04-19T04:29:12;13.50;;;6.38;;
69937;SDS011;57248;47.320;15.998;2023-04-19T04:31:47;13.45;;;5.78;;
69937;SDS011;57248;47.320;15.998;2023-04-19T04:34:24;11.63;;;5.18;;
69937;SDS011;57248;47.320;15.998;2023-04-19T04:37:03;11.95;;;5.47;;
69937;SDS011;57248;47.320;15.998;2023-04-19T04:39:37;11.60;;;5.47;;
69937;SDS011;57248;47.320;15.998;2023-04-19T04:42:10;13.90;;;6.70;;
69937;SDS011;57248;47.320;15.998;2023-04-19T04:44:44;12.73;;;6.50;;
69937;SDS011;57248;47.320;15.998;2023-04-19T04:47:18;13.45;;;6.72;;
69937;SDS011;57248;47.320;15.998;2023-04-19T04:49:53;14.63;;;6.60;;
69937;SDS011;57248;47.320;15.998;2023-04-19T04:52:25;11.03;;;5.57;;
69937;SDS011;57248;47.320;15.998;2023-04-19T04:55:10;10.52;;;4.97;;
69937;SDS011;57248;47.320;15.998;2023-04-19T04:57:43;13.77;;;6.75;;
69937;SDS011;57248;47.320;15.998;2023-04-19T05:00:45;11.30;;;5.60;;
69937;SDS011;57248;47.320;15.998;2023-04-19T05:03:19;10.98;;;4.75;;
69937;SDS011;57248;47.320;15.998;2023-04-19T05:05:55;13.87;;;5.13;;
69937;SDS011;57248;47.320;15.998;2023-04-19T05:08:43;12.02;;;6.10;;
69937;SDS011;57248;47.320;15.998;2023-04-19T05:11:23;11.35;;;5.70;;
69937;SDS011;57248;47.320;15.998;2023-04-19T05:13:57;13.75;;;6.10;;
69937;SDS011;57248;47.320;15.998;2023-04-19T05:16:31;11.40;;;5.60;;
69937;SDS011;57248;47.320;15.998;2023-04-19T05:19:03;11.07;;;5.93;;
69937;SDS011;57248;47.320;15.998;2023-04-19T05:21:40;10.93;;;5.70;;
69937;SDS011;57248;47.320;15.998;2023-04-19T05:24:14;13.90;;;5.38;;
69937;SDS011;57248;47.320;15.998;2023-04-19T05:26:46;10.25;;;5.53;;
69937;SDS011;57248;47.320;15.998;2023-04-19T05:29:18;10.15;;;4.88;;
69937;SDS011;57248;47.320;15.998;2023-04-19T05:31:54;13.47;;;6.67;;
69937;SDS011;57248;47.320;15.998;2023-04-19T05:34:31;13.48;;;7.07;;
69937;SDS011;57248;47.320;15.998;2023-04-19T05:37:04;13.43;;;7.00;;
69937;SDS011;57248;47.320;15.998;2023-04-19T05:39:36;12.93;;;7.03;;
69937;SDS011;57248;47.320;15.998;2023-04-19T05:42:08;12.45;;;5.93;;
69937;SDS011;57248;47.320;15.998;2023-04-19T05:44:41;11.60;;;5.70;;
69937;SDS011;57248;47.320;15.998;2023-04-19T05:47:13;12.38;;;6.50;;
69937;SDS011;57248;47.320;15.998;2023-04-19T05:50:14;14.95;;;7.53;;
69937;SDS011;57248;47.320;15.998;2023-04-19T05:53:10;15.23;;;7.68;;
69937;SDS011;57248;47.320;15.998;2023-04-19T05:55:43;11.93;;;6.10;;
69937;SDS011;57248;47.320;15.998;2023-04-19T05:58:17;10.07;;;5.40;;
69937;SDS011;57248;47.320;15.998;2023-04-19T06:01:03;11.18;;;6.10;;
69937;SDS011;57248;47.320;15.998;2023-04-19T06:03:38;11.38;;;5.88;;
69937;SDS011;57248;47.320;15.998;2023-04-19T06:06:10;11.55;;;5.50;;
69937;SDS011;57248;47.320;15.998;2023-04-19T06:08:43;10.45;;;5.40;;
69937;SDS011;57248;47.320;15.998;2023-04-19T06:11:15;9.30;;;4.40;;
69937;SDS011;57248;47.320;15.998;2023-04-19T06:13:46;10.95;;;5.15;;
69937;SDS011;57248;47.320;15.998;2023-04-19T06:16:12;12.73;;;5.22;;
69937;SDS011;57248;47.320;15.998;2023-04-19T06:18:44;10.10;;;5.00;;
69937;SDS011;57248;47.320;15.998;2023-04-19T06:21:16;10.40;;;5.25;;
69937;SDS011;57248;47.320;15.998;2023-04-19T06:23:48;10.35;;;5.65;;
69937;SDS011;57248;47.320;15.998;2023-04-19T06:26:20;12.52;;;5.70;;
69937;SDS011;57248;47.320;15.998;2023-04-19T06:28:52;11.65;;;5.18;;
69937;SDS011;57248;47.320;15.998;2023-04-19T06:31:24;9.87;;;5.73;;
69937;SDS011;57248;47.320;15.998;2023-04-19T06:33:56;11.82;;;6.22;;
69937;SDS011;57248;47.320;15.998;2023-04-19T06:36:28;14.77;;;7.88;;
69937;SDS011;57248;47.320;15.998;2023-04-19T06:39:00;15.50;;;7.47;;
69937;SDS011;57248;47.320;15.998;2023-04-19T06:41:32;15.18;;;7.82;;
69937;SDS011;57248;47.320;15.998;2023-04-19T06:44:05;16.37;;;7.60;;
69937;SDS011;57248;47.320;15.998;2023-04-19T06:46:36;14.32;;;7.03;;
69937;SDS011;57248;47.320;15.998;2023-04-19T06:49:02;13.20;;;7.00;;
69937;SDS011;57248;47.320;15.998;2023-04-19T06:51:34;18.55;;;9.80;;
69937;SDS011;57248;47.320;15.998;2023-04-19T06:54:06;16.30;;;9.38;;
69937;SDS011;57248;47.320;15.998;2023-04-19T06:56:38;16.20;;;9.00;;
69937;SDS011;57248;47.320;15.998;2023-04-19T06:59:15;12.90;;;6.63;;
69937;SDS011;57248;47.320;15.998;2023-04-19T07:01:58;12.80;;;6.87;;
69937;SDS011;57248;47.320;15.998;2023-04-19T07:04:31;12.13;;;6.32;;
69937;SDS011;57248;47.320;15.998;2023-04-19T07:07:02;11.60;;;6.20;;
69937;SDS011;57248;47.320;15.998;2023-04-19T07:09:28;10.73;;;6.27;;
69937;SDS011;57248;47.320;15.998;2023-04-19T07:12:01;11.70;;;6.45;;
69937;SDS011;57248;47.320;15.998;2023-04-19T07:14:33;12.13;;;6.32;;
69937;SDS011;57248;47.320;15.998;2023-04-19T07:17:05;11.10;;;6.53;;
69937;SDS011;57248;47.320;15.998;2023-04-19T07:19:36;13.20;;;6.60;;
69937;SDS011;57248;47.320;15.998;2023-04-19T07:22:09;12.10;;;6.28;;
69937;SDS011;57248;47.320;15.998;2023-04-19T07:24:41;11.95;;;6.10;;
69937;SDS011;57248;47.320;15.998;2023-04-19T07:27:15;11.00;;;5.75;;
69937;SDS011;57248;47.320;15.998;2023-04-19T07:29:47;11.43;;;6.18;;
69937;SDS011;57248;47.320;15.998;2023-04-19T07:32:18;12.30;;;5.87;;
69937;SDS011;57248;47.320;15.998;2023-04-19T07:34:51;13.95;;;7.88;;
69937;SDS011;57248;47.320;15.998;2023-04-19T07:37:24;11.25;;;5.82;;
69937;SDS011;57248;47.320;15.998;2023-04-19T07:39:55;10.68;;;5.82;;
69937;SDS011;57248;47.320;15.998;2023-04-19T07:42:28;9.25;;;5.57;;
69937;SDS011;57248;47.320;15.998;2023-04-19T07:45:02;11.40;;;6.37;;
69937;SDS011;57248;47.320;15.998;2023-04-19T07:47:34;11.40;;;6.13;;
69937;SDS011;57248;47.320;15.998;2023-04-19T07:50:06;12.65;;;6.72;;
69937;SDS011;57248;47.320;15.998;2023-04-19T07:52:39;14.95;;;8.10;;
69937;SDS011;57248;47.320;15.998;2023-04-19T07:55:12;12.80;;;7.03;;
69937;SDS011;57248;47.320;15.998;2023-04-19T07:57:44;17.17;;;8.87;;
69937;SDS011;57248;47.320;15.998;2023-04-19T08:00:26;22.02;;;11.50;;
69937;SDS011;57248;47.320;15.998;2023-04-19T08:03:00;14.90;;;7.70;;
69937;SDS011;57248;47.320;15.998;2023-04-19T08:05:31;12.20;;;6.43;;
69937;SDS011;57248;47.320;15.998;2023-04-19T08:08:05;11.50;;;6.50;;
69937;SDS011;57248;47.320;15.998;2023-04-19T08:10:37;13.87;;;7.03;;
69937;SDS011;57248;47.320;15.998;2023-04-19T08:13:02;13.85;;;7.00;;
69937;SDS011;57248;47.320;15.998;2023-04-19T08:15:34;11.75;;;6.55;;
69937;SDS011;57248;47.320;15.998;2023-04-19T08:18:06;12.33;;;6.50;;
69937;SDS011;57248;47.320;15.998;2023-04-19T08:20:39;14.40;;;8.25;;
69937;SDS011;57248;47.320;15.998;2023-04-19T08:23:13;15.02;;;6.60;;
69937;SDS011;57248;47.320;15.998;2023-04-19T08:25:45;12.30;;;6.70;;
69937;SDS011;57248;47.320;15.998;2023-04-19T08:28:17;12.90;;;6.53;;
69937;SDS011;57248;47.320;15.998;2023-04-19T08:30:50;13.67;;;6.93;;
69937;SDS011;57248;47.320;15.998;2023-04-19T08:33:22;14.30;;;7.53;;
69937;SDS011;57248;47.320;15.998;2023-04-19T08:35:47;13.20;;;6.63;;
69937;SDS011;57248;47.320;15.998;2023-04-19T08:38:20;11.52;;;6.50;;
69937;SDS011;57248;47.320;15.998;2023-04-19T08:40:52;10.68;;;6.47;;
69937;SDS011;57248;47.320;15.998;2023-04-19T08:43:28;12.45;;;6.57;;
69937;SDS011;57248;47.320;15.998;2023-04-19T08:46:04;11.85;;;6.50;;
69937;SDS011;57248;47.320;15.998;2023-04-19T08:48:37;12.77;;;6.50;;
69937;SDS011;57248;47.320;15.998;2023-04-19T08:51:11;11.27;;;6.38;;
69937;SDS011;57248;47.320;15.998;2023-04-19T08:53:37;12.60;;;7.05;;
69937;SDS011;57248;47.320;15.998;2023-04-19T08:56:11;10.48;;;6.35;;
69937;SDS011;57248;47.320;15.998;2023-04-19T08:58:43;12.27;;;6.60;;
69937;SDS011;57248;47.320;15.998;2023-04-19T09:01:22;10.87;;;7.00;;
69937;SDS011;57248;47.320;15.998;2023-04-19T09:03:54;12.63;;;6.40;;
69937;SDS011;57248;47.320;15.998;2023-04-19T09:06:26;11.20;;;6.60;;
69937;SDS011;57248;47.320;15.998;2023-04-19T09:11:54;13.75;;;6.95;;
69937;SDS011;57248;47.320;15.998;2023-04-19T09:14:26;13.80;;;6.80;;
69937;SDS011;57248;47.320;15.998;2023-04-19T09:17:14;16.17;;;7.85;;
69937;SDS011;57248;47.320;15.998;2023-04-19T09:19:47;14.80;;;7.38;;
69937;SDS011;57248;47.320;15.998;2023-04-19T09:22:20;13.95;;;7.28;;
69937;SDS011;57248;47.320;15.998;2023-04-19T09:24:52;13.77;;;7.70;;
69937;SDS011;57248;47.320;15.998;2023-04-19T09:27:25;13.47;;;7.10;;
69937;SDS011;57248;47.320;15.998;2023-04-19T09:30:05;11.95;;;7.35;;
69937;SDS011;57248;47.320;15.998;2023-04-19T09:32:47;12.75;;;7.55;;
69937;SDS011;57248;47.320;15.998;2023-04-19T09:35:19;12.95;;;6.82;;
69937;SDS011;57248;47.320;15.998;2023-04-19T09:37:57;14.38;;;6.97;;
69937;SDS011;57248;47.320;15.998;2023-04-19T09:40:31;11.67;;;7.10;;
69937;SDS011;57248;47.320;15.998;2023-04-19T09:43:03;11.68;;;6.82;;
69937;SDS011;57248;47.320;15.998;2023-04-19T09:45:41;11.73;;;7.00;;
69937;SDS011;57248;47.320;15.998;2023-04-19T09:48:15;12.20;;;7.53;;
69937;SDS011;57248;47.320;15.998;2023-04-19T09:50:53;11.10;;;7.03;;
69937;SDS011;57248;47.320;15.998;2023-04-19T09:53:32;10.98;;;7.45;;
69937;SDS011;57248;47.320;15.998;2023-04-19T09:56:05;11.63;;;7.00;;
69937;SDS011;57248;47.320;15.998;2023-04-19T09:58:44;12.67;;;7.30;;
69937;SDS011;57248;47.320;15.998;2023-04-19T10:01:18;11.77;;;7.75;;
69937;SDS011;57248;47.320;15.998;2023-04-19T10:03:59;15.07;;;7.70;;
69937;SDS011;57248;47.320;15.998;2023-04-19T10:06:25;12.98;;;7.50;;
69937;SDS011;57248;47.320;15.998;2023-04-19T10:08:59;13.10;;;8.40;;
69937;SDS011;57248;47.320;15.998;2023-04-19T10:11:35;12.90;;;7.90;;
69937;SDS011;57248;47.320;15.998;2023-04-19T10:14:08;11.77;;;7.60;;
69937;SDS011;57248;47.320;15.998;2023-04-19T10:16:42;12.18;;;7.40;;
69937;SDS011;57248;47.320;15.998;2023-04-19T10:19:11;12.37;;;7.70;;
69937;SDS011;57248;47.320;15.998;2023-04-19T10:21:46;11.60;;;7.45;;
69937;SDS011;57248;47.320;15.998;2023-04-19T10:24:20;12.52;;;7.90;;
69937;SDS011;57248;47.320;15.998;2023-04-19T10:32:22;11.50;;;6.97;;
69937;SDS011;57248;47.320;15.998;2023-04-19T10:35:00;10.70;;;7.28;;
69937;SDS011;57248;47.320;15.998;2023-04-19T10:37:38;11.90;;;7.55;;
69937;SDS011;57248;47.320;15.998;2023-04-19T10:40:12;14.13;;;7.47;;
69937;SDS011;57248;47.320;15.998;2023-04-19T10:43:31;12.52;;;7.35;;
69937;SDS011;57248;47.320;15.998;2023-04-19T10:46:06;12.53;;;7.40;;
69937;SDS011;57248;47.320;15.998;2023-04-19T10:48:50;11.68;;;7.47;;
69937;SDS011;57248;47.320;15.998;2023-04-19T10:51:36;10.75;;;6.85;;
69937;SDS011;57248;47.320;15.998;2023-04-19T10:54:27;13.35;;;7.72;;
69937;SDS011;57248;47.320;15.998;2023-04-19T10:57:04;12.50;;;7.82;;
69937;SDS011;57248;47.320;15.998;2023-04-19T10:59:44;12.20;;;7.03;;
69937;SDS011;57248;47.320;15.998;2023-04-19T11:02:52;10.90;;;6.32;;
69937;SDS011;57248;47.320;15.998;2023-04-19T11:05:24;11.23;;;5.82;;
69937;SDS011;57248;47.320;15.998;2023-04-19T11:07:56;9.40;;;5.95;;
69937;SDS011;57248;47.320;15.998;2023-04-19T11:10:28;9.00;;;5.32;;
69937;SDS011;57248;47.320;15.998;2023-04-19T11:13:02;10.23;;;5.73;;
69937;SDS011;57248;47.320;15.998;2023-04-19T11:15:34;10.02;;;5.82;;
69937;SDS011;57248;47.320;15.998;2023-04-19T11:18:18;8.25;;;5.47;;
69937;SDS011;57248;47.320;15.998;2023-04-19T11:20:51;8.55;;;5.10;;
69937;SDS011;57248;47.320;15.998;2023-04-19T11:23:25;8.02;;;4.97;;
69937;SDS011;57248;47.320;15.998;2023-04-19T11:25:57;8.37;;;4.70;;
69937;SDS011;57248;47.320;15.998;2023-04-19T11:28:32;8.27;;;4.93;;
69937;SDS011;57248;47.320;15.998;2023-04-19T11:31:04;7.65;;;4.43;;
69937;SDS011;57248;47.320;15.998;2023-04-19T11:33:37;8.10;;;4.50;;
69937;SDS011;57248;47.320;15.998;2023-04-19T11:36:10;6.93;;;3.95;;
69937;SDS011;57248;47.320;15.998;2023-04-19T11:38:46;5.60;;;3.30;;
69937;SDS011;57248;47.320;15.998;2023-04-19T11:41:12;4.40;;;2.30;;
69937;SDS011;57248;47.320;15.998;2023-04-19T11:43:45;4.57;;;2.50;;
69937;SDS011;57248;47.320;15.998;2023-04-19T11:46:17;4.38;;;2.38;;
69937;SDS011;57248;47.320;15.998;2023-04-19T11:48:49;4.20;;;2.15;;
69937;SDS011;57248;47.320;15.998;2023-04-19T11:51:23;4.77;;;2.70;;
69937;SDS011;57248;47.320;15.998;2023-04-19T11:53:55;4.18;;;2.50;;
69937;SDS011;57248;47.320;15.998;2023-04-19T11:56:27;4.28;;;2.28;;
69937;SDS011;57248;47.320;15.998;2023-04-19T11:59:00;4.20;;;2.08;;
69937;SDS011;57248;47.320;15.998;2023-04-19T12:01:46;4.43;;;2.30;;
69937;SDS011;57248;47.320;15.998;2023-04-19T12:04:18;3.70;;;1.90;;
69937;SDS011;57248;47.320;15.998;2023-04-19T12:06:57;4.00;;;2.30;;
69937;SDS011;57248;47.320;15.998;2023-04-19T12:09:31;4.53;;;1.90;;
69937;SDS011;57248;47.320;15.998;2023-04-19T12:12:05;4.78;;;2.22;;
69937;SDS011;57248;47.320;15.998;2023-04-19T12:14:37;3.85;;;1.95;;
69937;SDS011;57248;47.320;15.998;2023-04-19T12:17:09;3.83;;;2.00;;
69937;SDS011;57248;47.320;15.998;2023-04-19T12:19:44;4.68;;;2.00;;
69937;SDS011;57248;47.320;15.998;2023-04-19T12:22:18;4.38;;;2.13;;
69937;SDS011;57248;47.320;15.998;2023-04-19T12:24:52;3.67;;;2.00;;
69937;SDS011;57248;47.320;15.998;2023-04-19T12:27:26;3.67;;;2.08;;
69937;SDS011;57248;47.320;15.998;2023-04-19T12:29:58;3.83;;;1.90;;
69937;SDS011;57248;47.320;15.998;2023-04-19T12:32:30;4.00;;;2.17;;
69937;SDS011;57248;47.320;15.998;2023-04-19T12:34:55;4.07;;;2.00;;
69937;SDS011;57248;47.320;15.998;2023-04-19T12:37:28;3.78;;;1.90;;
69937;SDS011;57248;47.320;15.998;2023-04-19T12:40:00;4.20;;;2.03;;
69937;SDS011;57248;47.320;15.998;2023-04-19T12:42:32;3.47;;;1.77;;
69937;SDS011;57248;47.320;15.998;2023-04-19T12:45:05;4.25;;;2.03;;
69937;SDS011;57248;47.320;15.998;2023-04-19T12:47:31;4.37;;;1.90;;
69937;SDS011;57248;47.320;15.998;2023-04-19T12:50:03;4.13;;;2.00;;
69937;SDS011;57248;47.320;15.998;2023-04-19T12:52:35;4.20;;;1.90;;
69937;SDS011;57248;47.320;15.998;2023-04-19T12:55:07;3.50;;;1.73;;
69937;SDS011;57248;47.320;15.998;2023-04-19T12:57:40;3.33;;;1.63;;
69937;SDS011;57248;47.320;15.998;2023-04-19T13:00:13;3.10;;;1.87;;
69937;SDS011;57248;47.320;15.998;2023-04-19T13:02:52;2.85;;;1.40;;
69937;SDS011;57248;47.320;15.998;2023-04-19T13:05:24;3.08;;;1.40;;
69937;SDS011;57248;47.320;15.998;2023-04-19T13:07:56;3.17;;;1.80;;
69937;SDS011;57248;47.320;15.998;2023-04-19T13:10:28;3.00;;;2.00;;
69937;SDS011;57248;47.320;15.998;2023-04-19T13:13:00;3.13;;;1.60;;
69937;SDS011;57248;47.320;15.998;2023-04-19T13:15:33;2.03;;;1.10;;
69937;SDS011;57248;47.320;15.998;2023-04-19T13:18:06;2.33;;;1.20;;
69937;SDS011;57248;47.320;15.998;2023-04-19T13:20:38;2.70;;;1.10;;
69937;SDS011;57248;47.320;15.998;2023-04-19T13:23:10;2.42;;;0.80;;
69937;SDS011;57248;47.320;15.998;2023-04-19T13:25:42;2.17;;;0.67;;
69937;SDS011;57248;47.320;15.998;2023-04-19T13:28:14;1.88;;;0.63;;
69937;SDS011;57248;47.320;15.998;2023-04-19T13:30:46;1.73;;;0.50;;
69937;SDS011;57248;47.320;15.998;2023-04-19T13:33:18;1.90;;;0.60;;
69937;SDS011;57248;47.320;15.998;2023-04-19T13:35:50;2.05;;;0.52;;
69937;SDS011;57248;47.320;15.998;2023-04-19T13:38:22;2.30;;;0.57;;
69937;SDS011;57248;47.320;15.998;2023-04-19T13:40:56;1.92;;;0.70;;
69937;SDS011;57248;47.320;15.998;2023-04-19T13:43:28;2.10;;;0.50;;
69937;SDS011;57248;47.320;15.998;2023-04-19T13:46:00;1.83;;;0.50;;
69937;SDS011;57248;47.320;15.998;2023-04-19T13:48:32;2.08;;;0.77;;
69937;SDS011;57248;47.320;15.998;2023-04-19T13:51:04;1.53;;;0.40;;
69937;SDS011;57248;47.320;15.998;2023-04-19T13:53:37;3.13;;;0.88;;
69937;SDS011;57248;47.320;15.998;2023-04-19T13:56:10;2.65;;;0.80;;
69937;SDS011;57248;47.320;15.998;2023-04-19T13:58:51;2.25;;;0.70;;
69937;SDS011;57248;47.320;15.998;2023-04-19T14:01:23;3.20;;;0.80;;
69937;SDS011;57248;47.320;15.998;2023-04-19T14:04:03;2.63;;;0.73;;
69937;SDS011;57248;47.320;15.998;2023-04-19T14:06:28;2.97;;;0.90;;
69937;SDS011;57248;47.320;15.998;2023-04-19T14:09:00;2.28;;;0.88;;
69937;SDS011;57248;47.320;15.998;2023-04-19T14:11:33;2.53;;;1.00;;
69937;SDS011;57248;47.320;15.998;2023-04-19T14:14:06;3.10;;;1.10;;
69937;SDS011;57248;47.320;15.998;2023-04-19T14:16:38;3.83;;;1.05;;
69937;SDS011;57248;47.320;15.998;2023-04-19T14:19:13;3.88;;;1.08;;
69937;SDS011;57248;47.320;15.998;2023-04-19T14:21:46;2.20;;;0.70;;
69937;SDS011;57248;47.320;15.998;2023-04-19T14:24:18;3.10;;;0.70;;
69937;SDS011;57248;47.320;15.998;2023-04-19T14:26:51;2.35;;;0.77;;
69937;SDS011;57248;47.320;15.998;2023-04-19T14:29:24;3.70;;;1.15;;
69937;SDS011;57248;47.320;15.998;2023-04-19T14:31:57;2.33;;;0.88;;
69937;SDS011;57248;47.320;15.998;2023-04-19T14:34:30;2.08;;;0.77;;
69937;SDS011;57248;47.320;15.998;2023-04-19T14:36:56;2.43;;;0.80;;
69937;SDS011;57248;47.320;15.998;2023-04-19T14:39:28;3.03;;;1.00;;
69937;SDS011;57248;47.320;15.998;2023-04-19T14:41:53;2.37;;;0.90;;
69937;SDS011;57248;47.320;15.998;2023-04-19T14:44:25;3.00;;;1.03;;
69937;SDS011;57248;47.320;15.998;2023-04-19T14:46:57;2.88;;;0.95;;
69937;SDS011;57248;47.320;15.998;2023-04-19T14:49:29;3.88;;;1.30;;
69937;SDS011;57248;47.320;15.998;2023-04-19T14:52:02;3.60;;;1.20;;
69937;SDS011;57248;47.320;15.998;2023-04-19T14:54:35;3.50;;;1.30;;
69937;SDS011;57248;47.320;15.998;2023-04-19T14:57:07;3.93;;;1.40;;
69937;SDS011;57248;47.320;15.998;2023-04-19T14:59:46;4.53;;;1.38;;
69937;SDS011;57248;47.320;15.998;2023-04-19T15:02:18;4.40;;;1.63;;
69937;SDS011;57248;47.320;15.998;2023-04-19T15:04:50;3.95;;;1.60;;
69937;SDS011;57248;47.320;15.998;2023-04-19T15:07:24;3.78;;;1.60;;
69937;SDS011;57248;47.320;15.998;2023-04-19T15:09:57;4.90;;;1.87;;
69937;SDS011;57248;47.320;15.998;2023-04-19T15:12:22;5.70;;;2.40;;
69937;SDS011;57248;47.320;15.998;2023-04-19T15:14:55;6.18;;;2.00;;